Latest Weather Observations for Ferny Creek

IDV60801

Issued at 5:31 pm EST Tuesday 31 May 2016 (issued every 30 minutes, with the page automatically refreshed every 10 minutes)

About weather observations | Map of weather stations | Latest weather observations for VIC | Other Formats
Station Details ID: 086266 Name: FERNY CREEK Lat: -37.87 Lon: 145.35 Height: 512.9 m
Data from the previous 72 hours. | See also: Recent months at Ferny Creek
Date/Time
EST
Temp
°C
App
Temp
°C
Dew
Point
Rel
Hum
%
Delta-T
°C
Wind Press
QNH
hPa
Press
MSL
hPa
Rain
since 9 am
mm
Dir
 
Spd
km/h
Gust
km/h
Spd
kts
Gust
kts
31/05:30pm 8.0 6.5 4.8 80 1.4 ESE 2 4 1 2 1028.1 1028.3 0.0
31/05:00pm 8.9 7.5 5.3 78 1.7 SSE 2 4 1 2 1027.9 1028.1 0.0
31/04:30pm 9.5 8.1 3.7 67 2.6 CALM 0 0 0 0 1027.8 1028.0 0.0
31/04:00pm 11.2 8.9 3.0 57 3.7 ENE 4 6 2 3 1027.7 1027.9 0.0
31/03:30pm 12.1 10.6 2.8 53 4.2 CALM 0 6 0 3 1027.7 1027.9 0.0
31/03:00pm 11.7 8.9 3.0 55 3.9 ENE 7 11 4 6 1027.8 1028.0 0.0
31/02:30pm 12.2 9.9 2.9 53 4.2 N 4 6 2 3 1027.8 1028.0 0.0
31/02:00pm 11.7 9.5 3.5 57 3.7 N 4 9 2 5 1028.0 1028.2 0.0
31/01:30pm 11.4 9.1 2.7 55 3.9 NW 4 6 2 3 1028.2 1028.4 0.0
31/01:00pm 11.3 9.1 3.1 57 3.7 N 4 9 2 5 1028.4 1028.7 0.0
31/12:30pm 11.5 9.0 3.8 59 3.5 N 6 13 3 7 1028.6 1028.9 0.0
31/12:00pm 12.3 9.6 3.5 55 4.0 NE 7 19 4 10 1029.0 1029.3 0.0
31/11:30am 12.3 9.8 4.0 57 3.8 NNE 6 13 3 7 1029.4 1029.6 0.0
31/11:00am 11.9 9.2 3.7 57 3.7 NE 7 13 4 7 1029.8 1030.0 0.0
31/10:30am 12.4 10.2 5.3 62 3.4 NE 6 9 3 5 1030.0 1030.3 0.0
31/10:00am 11.5 9.5 4.5 62 3.2 NE 4 6 2 3 1030.0 1030.3 0.0
31/09:30am 11.5 10.2 4.0 60 3.5 CALM 0 4 0 2 1030.1 1030.4 0.0
31/09:00am 10.1 8.9 4.7 69 2.5 CALM 0 0 0 0 1030.0 1030.3 0.2
31/08:30am 8.0 6.5 3.1 71 2.1 CALM 0 0 0 0 1029.7 1029.9 0.2
31/08:00am 7.4 6.0 3.3 75 1.8 CALM 0 0 0 0 1029.4 1029.6 0.2
31/07:30am 6.9 5.4 3.2 77 1.6 CALM 0 0 0 0 1029.0 1029.3 0.2
31/07:00am 6.9 5.4 3.0 76 1.7 CALM 0 0 0 0 1028.8 1029.1 0.0
31/06:30am 7.1 5.6 3.2 76 1.7 CALM 0 0 0 0 1028.4 1028.7 0.0
31/06:00am 6.9 5.5 3.3 78 1.6 CALM 0 0 0 0 1028.2 1028.4 0.0
31/05:30am 6.5 5.1 3.3 80 1.4 CALM 0 0 0 0 1028.0 1028.2 0.0
31/05:00am 6.3 4.9 3.6 83 1.2 CALM 0 0 0 0 1027.9 1028.1 0.0
31/04:30am 6.5 5.1 3.8 83 1.2 CALM 0 0 0 0 1027.8 1028.0 0.0
31/04:00am 6.0 4.6 3.3 83 1.2 CALM 0 0 0 0 1027.8 1028.0 0.0
31/03:30am 6.2 4.7 2.8 79 1.5 CALM 0 0 0 0 1027.8 1028.0 0.0
31/03:00am 6.5 5.0 3.1 79 1.5 CALM 0 0 0 0 1027.8 1028.0 0.0
31/02:30am 6.5 5.1 3.5 81 1.3 CALM 0 0 0 0 1027.8 1028.0 0.0
31/02:00am 6.3 4.9 3.3 81 1.3 CALM 0 0 0 0 1027.8 1028.0 0.0
31/01:30am 6.7 5.3 3.7 81 1.3 CALM 0 0 0 0 1027.8 1028.0 0.0
31/01:00am 6.4 5.1 4.1 85 1.0 CALM 0 0 0 0 1027.8 1028.0 0.0
31/12:30am 6.0 4.7 4.0 87 0.9 CALM 0 0 0 0 1027.8 1028.0 0.0
31/12:00am 5.9 4.2 3.9 87 0.9 N 2 6 1 3 1027.9 1028.1 0.0
 
Date/Time
EST
Temp
°C
App
Temp
°C
Dew
Point
Rel
Hum
%
Delta-T
°C
Wind Press
QNH
hPa
Press
MSL
hPa
Rain
since 9 am
mm
Dir
 
Spd
km/h
Gust
km/h
Spd
kts
Gust
kts
30/11:30pm 6.0 4.6 3.7 85 1.0 CALM 0 4 0 2 1027.9 1028.1 0.0
30/11:00pm 6.4 5.1 4.1 85 1.0 CALM 0 0 0 0 1027.9 1028.1 0.0
30/10:30pm 6.8 4.7 3.9 82 1.3 ENE 4 7 2 4 1027.7 1027.9 0.0
30/10:00pm 6.8 5.2 4.3 84 1.1 NW 2 7 1 4 1027.7 1027.9 0.0
30/09:30pm 6.0 4.3 4.0 87 0.9 WNW 2 4 1 2 1027.5 1027.7 0.0
30/09:00pm 6.6 5.3 3.9 83 1.2 CALM 0 2 0 1 1027.3 1027.5 0.0
30/08:30pm 6.8 4.7 3.8 81 1.3 ENE 4 9 2 5 1027.2 1027.4 0.0
30/08:00pm 7.0 4.9 3.8 80 1.4 ENE 4 7 2 4 1027.2 1027.4 0.0
30/07:30pm 7.3 4.8 3.9 79 1.5 E 6 9 3 5 1026.9 1027.2 0.0
30/07:00pm 7.3 4.6 3.9 79 1.5 E 7 13 4 7 1026.7 1027.0 0.0
30/06:30pm 6.8 4.3 3.8 81 1.3 E 6 9 3 5 1026.6 1026.9 0.0
30/06:00pm 6.7 4.6 3.7 81 1.3 E 4 7 2 4 1026.5 1026.7 0.0
30/05:30pm 6.8 5.1 3.9 82 1.3 ESE 2 6 1 3 1026.3 1026.5 0.0
30/05:00pm 7.5 5.9 4.3 80 1.4 E 2 6 1 3 1026.0 1026.2 0.0
30/04:30pm 8.2 6.9 4.2 76 1.8 CALM 0 2 0 1 1025.8 1026.0 0.0
30/04:00pm 9.4 7.6 3.6 67 2.6 ENE 2 4 1 2 1025.6 1025.8 0.0
30/03:30pm 10.3 8.9 3.3 62 3.1 CALM 0 2 0 1 1025.4 1025.6 0.0
30/03:00pm 9.5 7.7 3.3 65 2.7 NE 2 4 1 2 1025.4 1025.6 0.0
30/02:30pm 10.0 7.7 2.8 61 3.2 ENE 4 7 2 4 1025.3 1025.5 0.0
30/02:00pm 9.3 7.1 3.1 65 2.7 E 4 9 2 5 1025.3 1025.5 0.0
30/01:30pm 9.1 6.5 3.1 66 2.7 NE 6 11 3 6 1025.4 1025.6 0.0
30/01:00pm 8.9 6.1 3.1 67 2.5 E 7 11 4 6 1025.5 1025.7 0.0
30/12:30pm 9.0 5.8 3.2 67 2.6 E 9 17 5 9 1025.7 1025.9 0.0
30/12:00pm 9.4 6.3 3.4 66 2.7 E 9 17 5 9 1025.9 1026.1 0.0
30/11:30am 8.7 5.7 2.1 63 2.8 ENE 7 11 4 6 1026.3 1026.5 0.0
30/11:00am 9.3 6.5 3.3 66 2.7 E 7 11 4 6 1026.4 1026.6 0.0
30/10:30am 9.0 6.1 1.7 60 3.1 E 6 9 3 5 1026.5 1026.7 0.0
30/10:00am 9.1 6.5 3.1 66 2.6 ENE 6 9 3 5 1026.4 1026.6 0.0
30/09:30am 8.6 5.9 2.4 65 2.7 ENE 6 9 3 5 1026.3 1026.5 0.0
30/09:00am 8.0 5.6 2.0 66 2.5 E 4 6 2 3 1026.1 1026.3 0.0
30/08:30am 7.0 4.6 1.9 70 2.1 E 4 7 2 4 1025.9 1026.1 0.0
30/08:00am 5.7 3.2 1.4 74 1.8 ESE 4 7 2 4 1025.6 1025.8 0.0
30/07:30am 5.0 2.8 0.9 75 1.7 E 2 4 1 2 1025.4 1025.6 0.0
30/07:00am 5.3 3.5 1.1 74 1.7 CALM 0 0 0 0 1025.2 1025.4 0.0
30/06:30am 5.7 4.0 1.6 75 1.7 CALM 0 2 0 1 1024.9 1025.2 0.0
30/06:00am 5.8 3.7 1.9 76 1.6 SSE 2 6 1 3 1024.6 1024.8 0.0
30/05:30am 5.4 3.4 2.1 79 1.4 ESE 2 4 1 2 1024.3 1024.5 0.0
30/05:00am 5.7 3.6 1.6 75 1.7 S 2 6 1 3 1023.9 1024.1 0.0
30/04:30am 5.4 3.3 1.5 76 1.6 E 2 4 1 2 1023.6 1023.8 0.0
30/04:00am 5.4 3.6 1.5 76 1.6 CALM 0 4 0 2 1023.6 1023.8 0.0
30/03:30am 5.2 3.4 1.5 77 1.5 CALM 0 0 0 0 1023.5 1023.7 0.0
30/03:00am 5.2 3.5 1.7 78 1.4 CALM 0 0 0 0 1023.5 1023.7 0.0
30/02:30am 5.2 3.5 1.9 79 1.4 CALM 0 0 0 0 1023.4 1023.6 0.0
30/02:00am 5.3 3.6 2.0 79 1.4 CALM 0 0 0 0 1023.2 1023.3 0.0
30/01:30am 5.0 3.3 2.0 81 1.2 CALM 0 0 0 0 1023.1 1023.2 0.0
30/01:00am 5.3 3.6 2.0 79 1.4 CALM 0 0 0 0 1022.8 1023.0 0.0
30/12:30am 5.3 3.6 1.8 78 1.4 CALM 0 0 0 0 1022.8 1023.0 0.0
30/12:00am 6.2 4.6 2.5 77 1.6 CALM 0 0 0 0 1022.8 1023.0 0.0
 
Date/Time
EST
Temp
°C
App
Temp
°C
Dew
Point
Rel
Hum
%
Delta-T
°C
Wind Press
QNH
hPa
Press
MSL
hPa
Rain
since 9 am
mm
Dir
 
Spd
km/h
Gust
km/h
Spd
kts
Gust
kts
29/11:30pm 6.5 5.0 2.9 78 1.5 CALM 0 0 0 0 1022.8 1023.0 0.0
29/11:00pm 6.3 4.9 3.3 81 1.3 CALM 0 0 0 0 1022.8 1023.0 0.0
29/10:30pm 6.3 4.8 3.1 80 1.4 CALM 0 0 0 0 1022.7 1022.9 0.0
29/10:00pm 6.1 4.6 3.1 81 1.3 CALM 0 4 0 2 1022.6 1022.8 0.0
29/09:30pm 5.8 4.3 2.8 81 1.3 CALM 0 0 0 0 1022.5 1022.7 0.0
29/09:00pm 5.8 4.2 2.4 79 1.4 CALM 0 2 0 1 1022.4 1022.6 0.0
29/08:30pm 5.2 3.6 2.4 82 1.2 CALM 0 0 0 0 1022.3 1022.5 0.0
29/08:00pm 5.2 3.6 2.6 83 1.1 CALM 0 0 0 0 1022.2 1022.4 0.0
29/07:30pm 5.4 3.9 2.8 83 1.1 CALM 0 0 0 0 1021.8 1022.0 0.0
29/07:00pm 5.0 3.5 2.9 86 0.9 CALM 0 0 0 0 1021.5 1021.6 0.0
29/06:30pm 5.1 3.7 3.3 88 0.8 CALM 0 0 0 0 1021.3 1021.4 0.0
29/06:00pm 5.2 3.8 3.4 88 0.8 CALM 0 0 0 0 1021.0 1021.1 0.0
29/05:30pm 5.6 4.2 3.4 86 0.9 CALM 0 0 0 0 1020.7 1020.9 0.0
29/05:00pm 6.3 4.9 3.6 83 1.2 CALM 0 2 0 1 1020.5 1020.7 0.0
29/04:30pm 7.4 5.7 4.0 79 1.5 W 2 6 1 3 1020.4 1020.6 0.0
29/04:00pm 8.2 6.6 4.4 77 1.7 W 2 6 1 3 1020.2 1020.4 0.0
29/03:30pm 8.1 6.8 4.3 77 1.7 CALM 0 2 0 1 1020.1 1020.3 0.0
29/03:00pm 8.7 7.1 4.3 74 2.0 WSW 2 4 1 2 1020.0 1020.2 0.0
29/02:30pm 8.9 6.6 4.9 76 1.8 WSW 6 11 3 6 1019.9 1020.0 0.0
29/02:00pm 9.2 7.6 4.6 73 2.1 WNW 2 4 1 2 1019.8 1019.9 0.0
29/01:30pm 9.6 7.8 5.2 74 2.0 WSW 4 11 2 6 1019.6 1019.7 0.0
29/01:00pm 9.0 7.4 4.6 74 2.0 W 2 7 1 4 1019.7 1019.8 0.0
29/12:30pm 8.9 7.0 4.9 76 1.8 WSW 4 7 2 4 1019.8 1019.9 0.0
29/12:00pm 8.7 6.7 4.5 75 1.9 W 4 9 2 5 1019.8 1019.9 0.0
29/11:30am 8.7 6.9 5.4 80 1.5 WSW 4 9 2 5 1020.0 1020.2 0.0
29/11:00am 8.3 5.8 4.7 78 1.6 WNW 7 15 4 8 1019.8 1019.9 0.0
29/10:30am 8.0 6.2 5.5 84 1.2 WNW 4 7 2 4 1019.8 1019.9 0.0
29/10:00am 7.5 6.0 5.1 85 1.1 W 2 6 1 3 1019.6 1019.7 0.0
29/09:30am 7.2 5.2 4.5 83 1.2 W 4 11 2 6 1019.3 1019.4 0.0
29/09:00am 6.4 4.5 4.9 90 0.7 WNW 4 6 2 3 1018.9 1019.0 3.6
29/08:30am 6.2 4.7 5.2 93 0.5 WSW 2 6 1 3 1018.4 1018.6 3.6
29/08:00am 5.0 3.3 4.1 94 0.4 WNW 2 6 1 3 1018.1 1018.2 3.6
29/07:30am 5.4 3.8 4.7 95 0.3 W 2 6 1 3 1017.9 1018.0 3.6
29/07:00am 5.4 3.8 4.7 95 0.3 W 2 2 1 1 1017.8 1017.9 3.6
29/06:30am 5.6 4.1 4.9 95 0.3 W 2 4 1 2 1017.6 1017.7 3.4
29/06:00am 5.5 4.3 4.8 95 0.3 CALM 0 2 0 1 1017.4 1017.5 3.4
29/05:30am 5.4 3.8 4.7 95 0.3 WNW 2 6 1 3 1017.2 1017.3 3.4
29/05:00am 5.5 4.0 4.8 95 0.3 WNW 2 7 1 4 1017.1 1017.2 3.2
29/04:30am 5.3 3.7 4.6 95 0.3 WNW 2 9 1 5 1016.7 1016.9 3.2
29/04:00am 5.5 4.0 4.8 95 0.3 WNW 2 6 1 3 1016.6 1016.8 3.2
29/03:30am 5.6 4.1 5.0 96 0.3 WNW 2 6 1 3 1016.5 1016.6 3.2
29/03:00am 5.7 3.8 5.1 96 0.3 WNW 4 9 2 5 1016.4 1016.5 3.2
29/02:30am 5.8 4.3 5.1 95 0.3 WNW 2 6 1 3 1016.3 1016.4 3.2
29/02:00am 5.9 4.1 5.2 95 0.3 WNW 4 9 2 5 1016.0 1016.1 3.2
29/01:30am 5.9 4.4 5.2 95 0.3 W 2 6 1 3 1015.8 1015.9 3.0
29/01:00am 6.0 4.6 5.3 95 0.3 W 2 6 1 3 1015.7 1015.8 2.8
29/12:30am 6.1 4.7 5.5 96 0.3 W 2 4 1 2 1015.8 1015.9 2.8
29/12:00am 6.2 4.8 5.6 96 0.3 WNW 2 4 1 2 1015.8 1015.9 2.8
 
Date/Time
EST
Temp
°C
App
Temp
°C
Dew
Point
Rel
Hum
%
Delta-T
°C
Wind Press
QNH
hPa
Press
MSL
hPa
Rain
since 9 am
mm
Dir
 
Spd
km/h
Gust
km/h
Spd
kts
Gust
kts
28/11:30pm 6.3 4.9 5.7 96 0.3 WNW 2 4 1 2 1015.8 1015.9 2.8
28/11:00pm 6.3 4.6 5.7 96 0.3 W 4 9 2 5 1015.7 1015.8 2.8
28/10:30pm 6.3 4.6 5.7 96 0.3 W 4 9 2 5 1015.6 1015.7 2.8
28/10:00pm 5.8 3.9 5.1 95 0.3 W 4 6 2 3 1015.6 1015.7 2.8
28/09:30pm 6.0 4.2 5.3 95 0.3 W 4 9 2 5 1015.6 1015.7 2.8
28/09:00pm 6.5 4.4 5.9 96 0.3 W 6 11 3 6 1015.4 1015.5 2.8
28/08:30pm 6.8 4.8 6.2 96 0.3 W 6 15 3 8 1015.1 1015.2 2.8
28/08:00pm 7.0 4.5 6.4 96 0.3 W 9 22 5 12 1014.9 1014.9 2.6
28/07:30pm 6.8 4.8 6.1 95 0.3 WSW 6 13 3 7 1014.6 1014.7 1.8
28/07:00pm 6.9 4.7 6.2 95 0.3 WSW 7 15 4 8 1014.4 1014.5 1.2
28/06:30pm 6.8 4.6 6.1 95 0.3 WSW 7 17 4 9 1014.0 1014.1 1.2
28/06:00pm 7.1 5.1 6.2 94 0.4 SW 6 13 3 7 1013.8 1013.9 1.2

Other Formats:

Comma delimited format used in spreadsheet applications
http://www.bom.gov.au/fwo/IDV60801/IDV60801.94872.axf

JavaScript Object Notation format (JSON) in row-major order
http://www.bom.gov.au/fwo/IDV60801/IDV60801.94872.json